createdAt,value
2018-08-31T00:02:12.179Z,17.70
2018-08-31T00:04:59.113Z,18.43
2018-08-31T00:07:48.773Z,16.73
2018-08-31T00:12:34.743Z,19.73
2018-08-31T00:15:10.343Z,17.10
2018-08-31T00:17:45.533Z,23.63
2018-08-31T00:20:21.910Z,21.70
2018-08-31T00:22:57.641Z,25.10
2018-08-31T00:26:15.883Z,19.10
2018-08-31T00:29:40.288Z,23.27
2018-08-31T00:34:30.962Z,24.07
2018-08-31T00:41:31.689Z,26.57
2018-08-31T00:44:33.196Z,24.80
2018-08-31T00:47:08.916Z,23.10
2018-08-31T00:49:45.471Z,21.43
2018-08-31T00:52:21.680Z,22.73
2018-08-31T00:54:57.612Z,24.13
2018-08-31T00:57:32.918Z,25.87
2018-08-31T01:00:09.600Z,22.00
2018-08-31T01:02:45.476Z,19.10
2018-08-31T01:05:20.891Z,17.63
2018-08-31T01:07:56.845Z,24.80
2018-08-31T01:10:32.210Z,20.20
2018-08-31T01:13:08.421Z,25.43
2018-08-31T01:15:44.325Z,19.43
2018-08-31T01:18:19.765Z,17.80
2018-08-31T01:20:57.508Z,22.17
2018-08-31T01:23:32.756Z,23.90
2018-08-31T01:26:07.792Z,21.77
2018-08-31T01:28:44.161Z,21.13
2018-08-31T01:31:19.922Z,19.83
2018-08-31T01:33:57.526Z,21.90
2018-08-31T01:36:33.664Z,17.60
2018-08-31T01:39:09.590Z,21.83
2018-08-31T01:41:46.346Z,22.83
2018-08-31T01:44:22.055Z,24.70
2018-08-31T01:46:58.248Z,25.13
2018-08-31T01:49:34.868Z,19.67
2018-08-31T01:52:10.106Z,25.50
2018-08-31T01:54:45.407Z,23.17
2018-08-31T01:57:21.354Z,29.20
2018-08-31T01:59:57.148Z,24.10
2018-08-31T02:02:33.194Z,24.90
2018-08-31T02:05:09.185Z,31.73
2018-08-31T02:07:45.083Z,35.50
2018-08-31T02:10:20.782Z,27.60
2018-08-31T02:12:56.432Z,22.20
2018-08-31T02:15:32.310Z,35.77
2018-08-31T02:18:09.047Z,32.47
2018-08-31T02:20:45.392Z,29.67
2018-08-31T02:23:22.065Z,24.07
2018-08-31T02:25:58.172Z,30.73
2018-08-31T02:28:33.905Z,37.83
2018-08-31T02:31:09.455Z,36.87
2018-08-31T02:33:44.904Z,38.47
2018-08-31T02:36:21.085Z,33.03
2018-08-31T02:38:55.898Z,26.57
2018-08-31T02:41:31.732Z,28.57
2018-08-31T02:44:07.200Z,27.43
2018-08-31T02:46:43.370Z,23.67
2018-08-31T02:49:19.395Z,29.70
2018-08-31T02:51:54.772Z,27.30
2018-08-31T02:54:30.186Z,32.47
2018-08-31T02:57:06.267Z,25.93
2018-08-31T02:59:42.645Z,24.57
2018-08-31T03:02:18.343Z,20.50
2018-08-31T03:04:54.056Z,25.73
2018-08-31T03:07:30.118Z,29.83
2018-08-31T03:10:06.330Z,25.80
2018-08-31T03:15:34.510Z,32.70
2018-08-31T03:18:10.332Z,37.83
2018-08-31T03:20:45.844Z,27.83
2018-08-31T03:23:21.980Z,31.60
2018-08-31T03:25:57.386Z,30.23
2018-08-31T03:28:33.451Z,25.33
2018-08-31T03:31:09.223Z,37.17
2018-08-31T03:33:44.621Z,31.23
2018-08-31T03:36:20.355Z,35.87
2018-08-31T03:38:55.613Z,34.83
2018-08-31T03:41:31.837Z,31.90
2018-08-31T03:44:06.839Z,34.53
2018-08-31T03:46:43.640Z,36.70
2018-08-31T03:49:19.324Z,37.60
2018-08-31T03:51:54.379Z,31.17
2018-08-31T03:54:29.503Z,36.07
2018-08-31T03:57:05.170Z,41.57
2018-08-31T03:59:40.941Z,31.43
2018-08-31T04:02:16.557Z,33.67
2018-08-31T04:04:52.411Z,22.27
2018-08-31T04:07:27.434Z,25.73
2018-08-31T04:10:03.038Z,30.33
2018-08-31T04:12:38.213Z,22.30
2018-08-31T04:15:15.110Z,23.73
2018-08-31T04:17:51.104Z,24.80
2018-08-31T04:20:27.609Z,21.77
2018-08-31T04:23:02.702Z,24.40
2018-08-31T04:25:38.475Z,25.10
2018-08-31T04:28:15.368Z,23.97
2018-08-31T04:30:51.752Z,34.57
2018-08-31T04:33:27.518Z,26.23
2018-08-31T04:36:02.867Z,27.70
2018-08-31T04:38:38.592Z,27.80
2018-08-31T04:41:13.924Z,32.00
2018-08-31T04:43:48.898Z,39.73
2018-08-31T04:46:24.645Z,25.90
2018-08-31T04:49:00.123Z,20.63
2018-08-31T04:51:36.015Z,23.73
2018-08-31T04:54:11.099Z,22.30
2018-08-31T04:56:47.304Z,20.83
2018-08-31T04:59:22.786Z,29.27
2018-08-31T05:01:58.963Z,40.20
2018-08-31T05:04:35.226Z,37.93
2018-08-31T05:07:10.348Z,49.93
2018-08-31T05:09:46.243Z,42.77
2018-08-31T05:12:22.280Z,40.93
2018-08-31T05:14:58.395Z,35.23
2018-08-31T05:17:33.962Z,39.07
2018-08-31T05:20:09.292Z,45.30
2018-08-31T05:22:45.576Z,30.07
2018-08-31T05:25:20.888Z,36.10
2018-08-31T05:27:56.768Z,36.00
2018-08-31T05:30:32.686Z,31.20
2018-08-31T05:33:09.242Z,39.80
2018-08-31T05:35:45.425Z,37.73
2018-08-31T05:38:21.391Z,33.17
2018-08-31T05:40:56.680Z,34.40
2018-08-31T05:43:32.437Z,34.93
2018-08-31T05:46:10.665Z,37.07
2018-08-31T05:48:46.494Z,31.53
2018-08-31T05:51:22.667Z,33.87
2018-08-31T05:53:58.199Z,29.50
2018-08-31T05:56:34.091Z,43.67
2018-08-31T05:59:11.715Z,42.80
2018-08-31T06:01:46.576Z,48.43
2018-08-31T06:04:23.040Z,46.30
2018-08-31T06:06:58.497Z,42.17
2018-08-31T06:09:34.459Z,48.77
2018-08-31T06:12:10.332Z,40.40
2018-08-31T06:14:46.310Z,54.83
2018-08-31T06:17:22.764Z,37.40
2018-08-31T06:19:59.496Z,44.97
2018-08-31T06:22:35.581Z,43.30
2018-08-31T06:25:12.592Z,49.87
2018-08-31T06:27:49.811Z,49.10
2018-08-31T06:30:25.117Z,62.10
2018-08-31T06:33:01.001Z,57.13
2018-08-31T06:35:35.780Z,74.37
2018-08-31T06:38:11.752Z,64.53
2018-08-31T06:40:47.274Z,90.20
2018-08-31T06:43:22.709Z,58.43
2018-08-31T06:45:58.373Z,66.87
2018-08-31T06:48:35.999Z,55.47
2018-08-31T06:51:13.146Z,53.30
2018-08-31T06:53:49.415Z,68.23
2018-08-31T06:56:26.114Z,54.90
2018-08-31T06:59:03.340Z,57.27
2018-08-31T07:01:39.234Z,55.73
2018-08-31T07:04:14.449Z,47.57
2018-08-31T07:06:49.814Z,46.40
2018-08-31T07:09:25.883Z,41.60
2018-08-31T07:12:01.485Z,44.00
2018-08-31T07:14:37.763Z,38.40
2018-08-31T07:17:14.382Z,37.37
2018-08-31T07:19:50.130Z,44.43
2018-08-31T07:22:25.975Z,36.50
2018-08-31T07:25:01.671Z,39.73
2018-08-31T07:27:38.075Z,44.83
2018-08-31T07:30:13.426Z,33.40
2018-08-31T07:32:49.586Z,48.03
2018-08-31T07:35:25.009Z,34.80
2018-08-31T07:38:01.152Z,31.57
2018-08-31T07:40:36.850Z,34.63
2018-08-31T07:43:13.138Z,32.00
2018-08-31T07:45:49.518Z,31.93
2018-08-31T07:48:26.294Z,31.27
2018-08-31T07:51:01.885Z,24.77
2018-08-31T07:53:38.425Z,29.80
2018-08-31T07:56:13.624Z,24.77
2018-08-31T07:58:48.678Z,27.67
2018-08-31T08:01:24.212Z,24.73
2018-08-31T08:03:59.219Z,28.23
2018-08-31T08:06:34.554Z,26.40
2018-08-31T08:09:11.045Z,26.13
2018-08-31T08:11:46.980Z,29.63
2018-08-31T08:14:22.606Z,25.87
2018-08-31T08:16:58.099Z,24.93
2018-08-31T08:19:34.865Z,25.60
2018-08-31T08:22:10.562Z,26.07
2018-08-31T08:24:46.115Z,29.73
2018-08-31T08:27:22.471Z,30.20
2018-08-31T08:29:58.016Z,30.90
2018-08-31T08:32:32.822Z,35.63
2018-08-31T08:35:11.611Z,30.90
2018-08-31T08:37:46.465Z,24.53
2018-08-31T08:40:21.203Z,19.00
2018-08-31T08:42:55.907Z,20.80
2018-08-31T08:45:31.305Z,20.43
2018-08-31T08:48:08.183Z,22.87
2018-08-31T08:50:43.863Z,25.33
2018-08-31T08:53:19.478Z,20.30
2018-08-31T08:55:55.181Z,22.37
2018-08-31T08:58:30.376Z,28.80
2018-08-31T09:01:06.161Z,26.10
2018-08-31T09:03:41.894Z,23.03
2018-08-31T09:06:17.942Z,25.60
2018-08-31T09:08:53.226Z,24.37
2018-08-31T09:11:28.190Z,27.50
2018-08-31T09:14:03.377Z,29.40
2018-08-31T09:16:39.282Z,27.97
2018-08-31T09:19:14.892Z,25.40
2018-08-31T09:21:49.736Z,25.07
2018-08-31T09:24:28.872Z,22.37
2018-08-31T09:27:04.068Z,21.60
2018-08-31T09:29:38.926Z,23.13
2018-08-31T09:32:19.235Z,22.90
2018-08-31T09:34:58.929Z,19.40
2018-08-31T09:37:34.163Z,21.33
2018-08-31T09:40:09.891Z,22.23
2018-08-31T09:42:45.674Z,21.40
2018-08-31T09:45:21.314Z,29.40
2018-08-31T09:47:56.311Z,20.37
2018-08-31T09:50:31.730Z,21.10
2018-08-31T09:53:06.395Z,20.30
2018-08-31T09:55:42.452Z,27.30
2018-08-31T09:58:18.697Z,25.60
2018-08-31T10:01:58.507Z,24.83
2018-08-31T10:04:33.406Z,29.50
2018-08-31T10:07:08.455Z,21.30
2018-08-31T10:09:43.268Z,19.40
2018-08-31T10:12:18.942Z,18.20
2018-08-31T10:14:54.395Z,19.83
2018-08-31T10:17:30.832Z,21.80
2018-08-31T10:20:07.190Z,20.13
2018-08-31T10:22:43.109Z,18.30
2018-08-31T10:25:18.808Z,21.00
2018-08-31T10:27:55.220Z,17.63
2018-08-31T10:30:31.385Z,17.23
2018-08-31T10:33:06.874Z,15.40
2018-08-31T10:35:42.571Z,23.63
2018-08-31T10:38:17.891Z,13.93
2018-08-31T10:40:53.221Z,18.33
2018-08-31T10:43:28.110Z,21.10
2018-08-31T10:46:03.376Z,19.40
2018-08-31T10:48:39.132Z,19.77
2018-08-31T10:51:17.093Z,22.53
2018-08-31T10:53:52.716Z,20.50
2018-08-31T10:56:28.118Z,19.07
2018-08-31T10:59:03.040Z,16.60
2018-08-31T11:01:38.088Z,21.17
2018-08-31T11:04:12.898Z,18.90
2018-08-31T11:06:47.891Z,18.13
2018-08-31T11:09:23.420Z,17.17
2018-08-31T11:11:58.547Z,17.93
2018-08-31T11:14:33.407Z,16.73
2018-08-31T11:17:08.220Z,17.87
2018-08-31T11:19:43.316Z,16.23
2018-08-31T11:22:18.560Z,18.60
2018-08-31T11:24:53.483Z,24.47
2018-08-31T11:27:28.326Z,19.37
2018-08-31T11:30:04.027Z,17.80
2018-08-31T11:32:40.719Z,17.37
2018-08-31T11:35:15.421Z,21.17
2018-08-31T11:37:51.332Z,16.00
2018-08-31T11:40:26.687Z,19.47
2018-08-31T11:43:09.275Z,22.30
2018-08-31T11:45:45.029Z,15.37
2018-08-31T11:48:19.630Z,16.63
2018-08-31T11:50:55.818Z,16.60
2018-08-31T11:53:31.348Z,19.80
2018-08-31T11:56:06.483Z,26.80
2018-08-31T11:58:41.637Z,19.60
2018-08-31T12:01:16.879Z,20.80
2018-08-31T12:03:51.475Z,18.90
2018-08-31T12:06:31.433Z,21.87
2018-08-31T12:09:10.101Z,19.83
2018-08-31T12:11:50.038Z,23.03
2018-08-31T12:14:28.992Z,18.47
2018-08-31T12:17:06.805Z,19.83
2018-08-31T12:19:55.339Z,18.43
2018-08-31T12:22:32.816Z,16.77
2018-08-31T12:25:16.069Z,18.87
2018-08-31T12:27:59.363Z,19.03
2018-08-31T12:30:36.872Z,20.80
2018-08-31T12:33:12.939Z,18.07
2018-08-31T12:35:49.616Z,20.40
2018-08-31T12:38:28.850Z,17.30
2018-08-31T12:41:05.746Z,17.53
2018-08-31T12:43:47.950Z,14.97
2018-08-31T12:46:23.016Z,29.67
2018-08-31T12:48:59.520Z,20.47
2018-08-31T12:51:34.848Z,20.00
2018-08-31T12:54:10.691Z,22.50
2018-08-31T12:56:46.184Z,20.33
2018-08-31T12:59:21.278Z,18.60
2018-08-31T13:01:57.502Z,16.83
2018-08-31T13:04:32.756Z,22.33
2018-08-31T13:07:08.950Z,22.90
2018-08-31T13:09:44.694Z,23.80
2018-08-31T13:12:21.205Z,25.43
2018-08-31T13:14:56.676Z,20.80
2018-08-31T13:17:31.497Z,17.33
2018-08-31T13:20:07.670Z,20.50
2018-08-31T13:22:44.116Z,16.10
2018-08-31T13:25:20.025Z,14.63
2018-08-31T13:27:55.647Z,29.23
2018-08-31T13:30:31.192Z,21.63
2018-08-31T13:33:07.024Z,14.53
2018-08-31T13:35:43.334Z,16.70
2018-08-31T13:38:19.195Z,17.20
2018-08-31T13:40:54.400Z,31.70
2018-08-31T13:43:30.142Z,24.30
2018-08-31T13:46:05.583Z,16.20
2018-08-31T13:48:41.447Z,14.47
2018-08-31T13:51:16.949Z,16.60
2018-08-31T13:53:51.943Z,18.40
2018-08-31T13:56:28.295Z,25.60
2018-08-31T13:59:04.191Z,15.90
2018-08-31T14:01:39.223Z,22.80
2018-08-31T14:04:15.190Z,17.13
2018-08-31T14:06:58.684Z,23.40
2018-08-31T14:09:34.098Z,20.70
2018-08-31T14:12:09.566Z,15.43
2018-08-31T14:14:45.676Z,19.03
2018-08-31T14:17:20.922Z,27.83
2018-08-31T14:19:57.274Z,15.40
2018-08-31T14:22:32.330Z,16.67
2018-08-31T14:25:07.440Z,14.73
2018-08-31T14:27:42.562Z,14.93
2018-08-31T14:30:18.174Z,19.77
2018-08-31T14:32:53.253Z,17.27
2018-08-31T14:35:29.667Z,20.70
2018-08-31T14:38:04.536Z,17.17
2018-08-31T14:40:40.885Z,13.90
2018-08-31T14:43:17.464Z,16.47
2018-08-31T14:45:55.276Z,14.77
2018-08-31T14:48:30.477Z,14.70
2018-08-31T14:51:07.428Z,14.90
2018-08-31T14:53:45.350Z,23.30
2018-08-31T14:56:21.132Z,25.67
2018-08-31T14:59:03.136Z,23.17
2018-08-31T15:01:39.930Z,19.57
2018-08-31T15:04:15.207Z,14.23
2018-08-31T15:06:51.151Z,16.87
2018-08-31T15:09:30.635Z,17.10
2018-08-31T15:12:08.146Z,13.23
2018-08-31T15:14:48.511Z,14.90
2018-08-31T15:17:26.272Z,15.33
2018-08-31T15:20:02.720Z,13.17
2018-08-31T15:22:37.846Z,16.00
2018-08-31T15:25:12.855Z,15.30
2018-08-31T15:27:50.109Z,15.27
2018-08-31T15:30:28.378Z,14.53
2018-08-31T15:33:05.510Z,13.10
2018-08-31T15:35:41.218Z,11.10
2018-08-31T15:38:16.702Z,23.63
2018-08-31T15:40:51.791Z,18.03
2018-08-31T15:43:27.529Z,13.03
2018-08-31T15:46:03.368Z,12.77
2018-08-31T15:48:38.806Z,13.67
2018-08-31T15:51:14.476Z,16.53
2018-08-31T15:53:50.100Z,15.87
2018-08-31T15:56:39.559Z,12.87
2018-08-31T15:59:14.888Z,17.17
2018-08-31T16:01:49.765Z,15.00
2018-08-31T16:04:24.733Z,20.07
2018-08-31T16:06:59.460Z,15.33
2018-08-31T16:09:34.228Z,13.80
2018-08-31T16:12:09.730Z,11.47
2018-08-31T16:14:45.439Z,15.83
2018-08-31T16:17:21.169Z,13.83
2018-08-31T16:19:55.963Z,16.13
2018-08-31T16:22:31.481Z,18.40
2018-08-31T16:25:06.995Z,20.07
2018-08-31T16:27:42.458Z,15.73
2018-08-31T16:30:17.326Z,16.07
2018-08-31T16:32:52.397Z,10.33
2018-08-31T16:35:27.444Z,15.10
2018-08-31T16:38:03.819Z,14.83
2018-08-31T16:40:39.195Z,12.07
2018-08-31T16:43:14.569Z,12.00
2018-08-31T16:45:50.071Z,14.70
2018-08-31T16:48:25.224Z,12.10
2018-08-31T16:51:00.109Z,10.90
2018-08-31T16:53:35.141Z,13.67
2018-08-31T16:56:09.978Z,12.70
2018-08-31T16:58:44.849Z,11.87
2018-08-31T17:01:20.705Z,11.47
2018-08-31T17:03:56.549Z,13.60
2018-08-31T17:06:32.538Z,12.90
2018-08-31T17:09:09.872Z,15.37
2018-08-31T17:11:45.968Z,11.07
2018-08-31T17:14:21.208Z,20.23
2018-08-31T17:16:57.009Z,16.70
2018-08-31T17:19:31.889Z,15.90
2018-08-31T17:22:10.781Z,10.80
2018-08-31T17:24:46.865Z,13.10
2018-08-31T17:27:27.373Z,17.10
2018-08-31T17:30:09.579Z,19.77
2018-08-31T17:32:51.691Z,18.00
2018-08-31T17:35:32.529Z,12.63
2018-08-31T17:38:08.546Z,17.40
2018-08-31T17:40:44.487Z,15.57
2018-08-31T17:43:22.245Z,15.50
2018-08-31T17:45:57.664Z,16.27
2018-08-31T17:48:33.512Z,16.90
2018-08-31T17:51:09.512Z,25.00
2018-08-31T17:53:45.177Z,11.23
2018-08-31T17:56:20.363Z,15.87
2018-08-31T17:58:56.082Z,12.37
2018-08-31T18:01:31.148Z,14.50
2018-08-31T18:04:07.083Z,14.60
2018-08-31T18:06:42.442Z,16.20
2018-08-31T18:09:17.365Z,14.07
2018-08-31T18:11:52.453Z,15.60
2018-08-31T18:14:28.607Z,15.50
2018-08-31T18:17:04.741Z,13.83
2018-08-31T18:19:40.049Z,15.33
2018-08-31T18:22:15.780Z,14.00
2018-08-31T18:24:50.872Z,18.43
2018-08-31T18:27:27.681Z,14.83
2018-08-31T18:30:03.129Z,15.27
2018-08-31T18:32:40.898Z,12.93
2018-08-31T18:35:14.536Z,12.73
2018-08-31T18:37:50.813Z,19.50
2018-08-31T18:40:26.722Z,13.40
2018-08-31T18:43:07.048Z,40.37
2018-08-31T18:45:44.960Z,16.53
2018-08-31T18:48:22.326Z,14.50
2018-08-31T18:50:59.843Z,16.43
2018-08-31T18:53:34.786Z,19.77
2018-08-31T18:56:12.687Z,12.70
2018-08-31T18:58:49.134Z,23.97
2018-08-31T19:01:25.999Z,11.50
2018-08-31T19:04:02.028Z,11.10
2018-08-31T19:06:38.100Z,12.73
2018-08-31T19:09:13.599Z,20.23
2018-08-31T19:11:48.914Z,17.63
2018-08-31T19:14:25.063Z,17.03
2018-08-31T19:17:00.383Z,14.00
2018-08-31T19:19:35.230Z,14.60
2018-08-31T19:22:12.472Z,17.50
2018-08-31T19:24:47.629Z,10.90
2018-08-31T19:27:22.846Z,19.67
2018-08-31T19:29:57.884Z,12.50
2018-08-31T19:32:35.708Z,14.23
2018-08-31T19:35:11.060Z,15.13
2018-08-31T19:37:47.321Z,17.57
2018-08-31T19:40:22.654Z,14.90
2018-08-31T19:42:57.769Z,16.50
2018-08-31T19:45:34.092Z,16.90
2018-08-31T19:48:10.402Z,15.57
2018-08-31T19:50:45.997Z,13.67
2018-08-31T19:53:22.963Z,13.50
2018-08-31T19:56:01.660Z,12.83
2018-08-31T19:58:37.648Z,12.83
2018-08-31T20:01:14.750Z,12.93
2018-08-31T20:03:51.018Z,15.80
2018-08-31T20:06:27.612Z,19.30
2018-08-31T20:09:03.357Z,11.30
2018-08-31T20:11:39.436Z,25.97
2018-08-31T20:14:15.222Z,13.67
2018-08-31T20:16:51.440Z,18.50
2018-08-31T20:19:27.206Z,19.60
2018-08-31T20:22:02.994Z,11.83
2018-08-31T20:24:38.597Z,14.30
2018-08-31T20:27:14.779Z,14.60
2018-08-31T20:29:51.511Z,12.70
2018-08-31T20:32:26.880Z,12.63
2018-08-31T20:35:02.030Z,12.90
2018-08-31T20:37:38.205Z,11.60
2018-08-31T20:40:13.406Z,11.50
2018-08-31T20:42:49.312Z,17.23
2018-08-31T20:45:24.179Z,12.57
2018-08-31T20:47:58.975Z,20.23
2018-08-31T20:50:34.008Z,13.23
2018-08-31T20:53:11.201Z,12.83
2018-08-31T20:55:46.642Z,17.47
2018-08-31T20:58:22.135Z,13.50
2018-08-31T21:00:57.498Z,14.00
2018-08-31T21:03:32.600Z,15.03
2018-08-31T21:06:08.303Z,13.10
2018-08-31T21:08:44.387Z,13.43
2018-08-31T21:11:19.334Z,14.63
2018-08-31T21:13:54.763Z,10.93
2018-08-31T21:16:29.741Z,22.00
2018-08-31T21:19:04.883Z,11.60
2018-08-31T21:21:40.415Z,16.23
2018-08-31T21:24:15.778Z,17.63
2018-08-31T21:26:51.600Z,11.60
2018-08-31T21:29:27.462Z,13.53
2018-08-31T21:32:03.538Z,16.50
2018-08-31T21:34:39.127Z,17.23
2018-08-31T21:37:14.687Z,10.77
2018-08-31T21:39:50.741Z,12.87
2018-08-31T21:42:26.100Z,14.93
2018-08-31T21:45:01.120Z,12.93
2018-08-31T21:47:36.220Z,12.03
2018-08-31T21:50:12.602Z,13.50
2018-08-31T21:52:48.163Z,14.73
2018-08-31T21:55:23.792Z,13.40
2018-08-31T21:57:59.135Z,8.90
2018-08-31T22:00:39.428Z,19.90
2018-08-31T22:03:14.691Z,11.70
2018-08-31T22:05:50.240Z,8.70
2018-08-31T22:08:25.474Z,15.53
2018-08-31T22:11:00.079Z,12.27
2018-08-31T22:13:35.984Z,12.30
2018-08-31T22:16:11.790Z,11.57
2018-08-31T22:18:47.628Z,10.77
2018-08-31T22:21:23.578Z,9.57
2018-08-31T22:23:59.632Z,13.30
2018-08-31T22:26:34.976Z,9.20
2018-08-31T22:29:10.027Z,11.60
2018-08-31T22:31:45.781Z,16.73
2018-08-31T22:34:21.151Z,15.87
2018-08-31T22:36:56.417Z,12.80
2018-08-31T22:39:31.141Z,9.80
2018-08-31T22:42:06.186Z,18.30
2018-08-31T22:44:41.028Z,7.20
2018-08-31T22:47:16.505Z,9.47
2018-08-31T22:49:52.020Z,8.30
2018-08-31T22:52:26.976Z,12.83
2018-08-31T22:55:02.799Z,10.23
2018-08-31T22:57:41.153Z,11.33
2018-08-31T23:00:16.465Z,9.50
2018-08-31T23:02:53.139Z,18.10
2018-08-31T23:05:28.594Z,11.37
2018-08-31T23:08:03.981Z,12.70
2018-08-31T23:10:39.855Z,11.67
2018-08-31T23:13:14.783Z,14.33
2018-08-31T23:15:49.554Z,9.30
2018-08-31T23:18:24.320Z,12.50
2018-08-31T23:20:59.710Z,26.90
2018-08-31T23:23:40.868Z,8.70
2018-08-31T23:26:17.373Z,13.03
2018-08-31T23:28:52.704Z,10.63
2018-08-31T23:31:28.928Z,10.63
2018-08-31T23:34:04.308Z,12.23
2018-08-31T23:36:42.679Z,11.90
2018-08-31T23:39:18.498Z,13.03
2018-08-31T23:41:54.324Z,9.20
2018-08-31T23:44:29.785Z,12.20
2018-08-31T23:47:05.211Z,11.70
2018-08-31T23:49:41.291Z,13.83
2018-08-31T23:52:16.852Z,18.80
2018-08-31T23:54:52.396Z,14.00
2018-08-31T23:57:27.076Z,12.93
